Terminal Aerodrome Forecast
Issued by NWS Sterling, VA

Current Version | Previous Version | Text Only | Print | Product List | Glossary Off
Versions: 1 2 3 4 5 6 7 8 9 10 11 12 13 14

000
FTUS41 KLWX 241100
TAFMRB
TAF
KMRB 241136Z 2412/2512 06004KT P6SM BKN015 BKN030
     FM241400 09004KT P6SM BKN035
     FM241700 10005KT P6SM SCT050
     FM242000 09005KT P6SM FEW250
     FM250200 00000KT P6SM FEW250=

USA.gov is the U.S. government's official web portal to all federal, state and local government web resources and services.